Time;durP1;ratioP1;P1;durP2;ratioP2;P2;SDS_P1;SDS_P2;PMS_P1;PMS_P2;Temp;Humidity;BMP_temperature;BMP_pressure;BME280_temperature;BME280_humidity;BME280_pressure;Samples;Min_cycle;Max_cycle;Signal;HPM_P1;HPM_P2
2022/12/29 00:02:40;;;;;;;4.95;3.30;;;9.70;99.90;;;;;;5031717;28;20132;-50
2022/12/29 00:05:26;;;;;;;3.88;2.60;;;9.70;99.90;;;;;;5031772;28;20021;-50
2022/12/29 00:08:12;;;;;;;4.50;2.78;;;9.80;99.90;;;;;;5031793;28;20091;-52
2022/12/29 00:10:58;;;;;;;4.03;2.90;;;9.80;99.90;;;;;;5031289;28;20171;-53
2022/12/29 00:16:49;;;;;;;4.82;2.92;;;9.80;99.90;;;;;;5031659;28;20029;-51
2022/12/29 00:35:08;;;;;;;4.93;3.13;;;9.80;99.90;;;;;;5030338;28;19913;-50
2022/12/29 00:44:09;;;;;;;3.75;3.13;;;9.90;99.90;;;;;;5034823;28;20108;-53
2022/12/29 00:46:55;;;;;;;3.20;2.75;;;9.90;99.90;;;;;;5034488;28;20045;-52
2022/12/29 00:49:42;;;;;;;4.18;3.05;;;9.90;99.90;;;;;;5034794;28;20036;-52
2022/12/29 00:52:28;;;;;;;4.95;2.80;;;9.80;99.90;;;;;;5034551;28;20524;-56
2022/12/29 00:55:14;;;;;;;4.05;2.80;;;9.90;99.90;;;;;;5034800;28;20449;-51
2022/12/29 00:58:00;;;;;;;4.10;2.78;;;9.90;99.90;;;;;;5030765;28;20035;-50
2022/12/29 01:00:45;;;;;;;5.68;3.17;;;9.90;99.90;;;;;;5034601;28;20048;-53
2022/12/29 01:03:33;;;;;;;3.65;2.90;;;9.90;99.90;;;;;;5034935;28;20026;-52
2022/12/29 01:06:18;;;;;;;4.47;2.92;;;9.90;99.90;;;;;;5034616;28;20018;-52
2022/12/29 01:12:11;;;;;;;6.20;3.33;;;9.80;99.90;;;;;;5034779;28;20029;-51
2022/12/29 01:14:57;;;;;;;3.22;2.88;;;9.70;99.90;;;;;;5035246;28;20037;-51
2022/12/29 01:17:43;;;;;;;4.82;2.83;;;9.80;99.90;;;;;;5035176;28;20080;-50
2022/12/29 01:20:28;;;;;;;4.95;2.88;;;9.90;99.90;;;;;;5034327;28;20030;-54
2022/12/29 01:23:14;;;;;;;6.13;3.03;;;9.80;99.90;;;;;;5033845;28;20104;-50
2022/12/29 01:26:10;;;;;;;5.45;3.10;;;9.90;99.90;;;;;;5035301;28;20035;-52
2022/12/29 01:28:56;;;;;;;5.22;2.97;;;9.90;99.90;;;;;;5034450;28;20025;-55
2022/12/29 01:31:42;;;;;;;2.70;2.50;;;9.90;99.90;;;;;;5034530;28;20108;-58
2022/12/29 01:34:28;;;;;;;5.70;3.22;;;10.00;99.90;;;;;;5035018;28;20025;-57
2022/12/29 01:37:14;;;;;;;3.97;3.05;;;10.00;99.90;;;;;;5034754;28;20044;-51
2022/12/29 01:40:00;;;;;;;4.05;2.75;;;10.10;99.90;;;;;;5031878;28;20028;-51
2022/12/29 01:42:46;;;;;;;3.65;2.70;;;10.10;99.90;;;;;;5033599;28;20029;-49
2022/12/29 01:45:32;;;;;;;4.28;2.80;;;10.10;99.90;;;;;;5034655;28;20032;-52
2022/12/29 01:48:19;;;;;;;4.75;3.15;;;10.20;99.90;;;;;;5034461;28;20049;-49
2022/12/29 01:51:06;;;;;;;4.95;3.30;;;10.20;99.90;;;;;;5033611;28;20034;-51
2022/12/29 01:53:55;;;;;;;3.42;2.75;;;10.20;99.90;;;;;;5034861;28;20037;-50
2022/12/29 01:56:41;;;;;;;3.20;2.70;;;10.20;99.90;;;;;;5033300;28;20022;-53
2022/12/29 01:59:32;;;;;;;4.50;2.78;;;10.20;99.90;;;;;;5034445;28;20445;-50
2022/12/29 02:02:18;;;;;;;4.10;3.00;;;10.30;99.90;;;;;;5033605;28;20143;-52
2022/12/29 02:05:15;;;;;;;4.13;2.97;;;10.30;99.90;;;;;;5033113;28;20053;-50
2022/12/29 02:08:01;;;;;;;4.38;2.78;;;10.30;99.90;;;;;;5034053;28;20022;-51
2022/12/29 02:10:48;;;;;;;3.92;3.22;;;10.40;99.90;;;;;;5033873;28;20573;-50
2022/12/29 02:13:34;;;;;;;4.35;3.03;;;10.40;99.90;;;;;;5032906;28;20510;-49
2022/12/29 02:16:32;;;;;;;4.43;2.72;;;10.40;99.90;;;;;;5033954;28;20457;-51
2022/12/29 02:19:39;;;;;;;4.70;2.92;;;10.40;99.90;;;;;;5032764;28;20029;-53
2022/12/29 02:23:12;;;;;;;3.92;3.10;;;10.30;99.90;;;;;;5033517;28;20026;-52
2022/12/29 02:26:13;;;;;;;4.32;2.92;;;10.40;99.90;;;;;;5033768;28;20497;-53
2022/12/29 02:29:30;;;;;;;4.85;2.67;;;10.40;99.90;;;;;;5033530;28;20084;-55
2022/12/29 02:32:16;;;;;;;5.35;3.20;;;10.30;99.90;;;;;;5033425;28;20124;-54
2022/12/29 02:35:12;;;;;;;5.75;3.22;;;10.40;99.90;;;;;;5032491;28;20048;-54
2022/12/29 02:38:20;;;;;;;4.20;3.17;;;10.40;99.90;;;;;;5030730;28;20025;-54
2022/12/29 02:41:27;;;;;;;4.93;3.28;;;10.40;99.90;;;;;;5033402;28;20446;-53
2022/12/29 02:44:26;;;;;;;4.20;2.80;;;10.50;99.90;;;;;;5033619;28;20072;-54
2022/12/29 02:47:16;;;;;;;4.32;3.10;;;10.50;99.90;;;;;;5029642;28;20030;-53
2022/12/29 02:50:17;;;;;;;4.28;3.13;;;10.40;99.90;;;;;;5033291;28;20055;-51
2022/12/29 02:53:16;;;;;;;4.63;2.95;;;10.40;99.90;;;;;;5033635;28;20035;-51
2022/12/29 02:56:02;;;;;;;4.93;2.92;;;10.40;99.90;;;;;;5033256;28;20030;-48
2022/12/29 02:58:48;;;;;;;4.18;3.08;;;10.50;99.90;;;;;;5033101;28;20048;-50
2022/12/29 03:05:33;;;;;;;4.38;3.10;;;10.50;99.90;;;;;;5032969;28;20022;-52
2022/12/29 03:08:44;;;;;;;3.92;3.45;;;10.50;99.90;;;;;;5033009;28;20036;-51
2022/12/29 03:18:36;;;;;;;4.50;2.80;;;10.50;99.90;;;;;;5025752;28;20030;-49
2022/12/29 03:24:57;;;;;;;5.78;3.00;;;10.50;99.90;;;;;;5022653;28;20057;-51
2022/12/29 03:28:09;;;;;;;8.73;3.35;;;10.50;99.90;;;;;;5021664;28;20044;-50
2022/12/29 03:30:58;;;;;;;5.07;3.47;;;10.60;99.90;;;;;;5022564;28;20502;-49
2022/12/29 03:33:46;;;;;;;3.67;2.80;;;10.60;99.90;;;;;;5023789;28;20044;-52
2022/12/29 03:36:55;;;;;;;3.97;3.00;;;10.60;99.90;;;;;;5021806;28;20038;-53
2022/12/29 03:39:41;;;;;;;5.80;3.53;;;10.60;99.90;;;;;;5023389;28;20030;-50
2022/12/29 03:42:32;;;;;;;3.58;2.90;;;10.70;99.90;;;;;;5021570;28;20037;-49
2022/12/29 03:45:19;;;;;;;4.68;3.58;;;10.70;99.90;;;;;;5024214;28;20049;-50
2022/12/29 03:48:05;;;;;;;5.38;3.08;;;10.70;99.90;;;;;;5021955;28;20061;-51
2022/12/29 03:50:51;;;;;;;3.85;2.72;;;10.80;99.90;;;;;;5020809;28;20058;-49
2022/12/29 03:53:37;;;;;;;4.30;3.10;;;10.80;99.90;;;;;;5020933;28;20026;-51
2022/12/29 03:56:23;;;;;;;5.45;3.17;;;10.80;99.90;;;;;;5021588;28;20100;-51
2022/12/29 03:59:09;;;;;;;4.30;2.92;;;10.90;99.90;;;;;;5021729;28;20018;-53
2022/12/29 04:01:54;;;;;;;5.72;4.07;;;10.90;99.90;;;;;;5023045;28;20050;-51
2022/12/29 04:04:40;;;;;;;4.45;3.10;;;10.90;99.90;;;;;;5023563;28;20025;-50
2022/12/29 04:07:26;;;;;;;5.35;3.20;;;10.90;99.90;;;;;;5021989;28;20022;-51
2022/12/29 04:10:12;;;;;;;4.75;3.03;;;10.90;99.90;;;;;;5022031;28;20080;-49
2022/12/29 04:12:58;;;;;;;4.35;2.80;;;10.90;99.90;;;;;;5023719;28;20026;-51
2022/12/29 04:15:45;;;;;;;3.95;3.17;;;10.80;99.90;;;;;;5029746;28;20414;-51
2022/12/29 04:18:31;;;;;;;4.60;2.83;;;10.80;99.90;;;;;;5033220;28;20057;-52
2022/12/29 04:21:17;;;;;;;5.53;2.92;;;10.90;99.90;;;;;;5036121;28;20053;-50
2022/12/29 04:24:06;;;;;;;6.32;2.90;;;10.90;99.90;;;;;;5036503;28;20393;-52
2022/12/29 04:26:52;;;;;;;4.90;2.83;;;10.90;99.90;;;;;;5036082;28;20434;-47
2022/12/29 04:29:37;;;;;;;3.50;2.45;;;10.90;99.90;;;;;;5034806;28;20371;-49
2022/12/29 04:32:23;;;;;;;3.92;3.00;;;10.90;99.90;;;;;;5033251;28;20505;-51
2022/12/29 04:35:09;;;;;;;12.35;7.93;;;10.90;99.90;;;;;;5035280;28;20565;-52
2022/12/29 04:37:55;;;;;;;4.32;3.15;;;10.90;99.90;;;;;;5029719;28;20551;-51
2022/12/29 04:40:43;;;;;;;3.13;2.78;;;10.80;99.90;;;;;;5034944;28;20048;-50
2022/12/29 04:43:28;;;;;;;3.40;2.80;;;10.80;99.90;;;;;;5035502;28;20083;-54
2022/12/29 04:46:14;;;;;;;3.65;2.75;;;10.80;99.90;;;;;;5033677;28;20026;-50
2022/12/29 04:49:04;;;;;;;3.08;2.50;;;10.80;99.90;;;;;;5034584;28;20049;-50
2022/12/29 04:51:50;;;;;;;4.25;2.70;;;10.80;99.90;;;;;;5035456;28;20084;-53
2022/12/29 04:54:36;;;;;;;3.47;2.70;;;10.70;99.90;;;;;;5034128;28;20604;-49
2022/12/29 04:57:22;;;;;;;4.95;2.70;;;10.70;99.90;;;;;;5034486;28;20092;-50
2022/12/29 05:00:09;;;;;;;5.07;2.80;;;10.60;99.90;;;;;;5035509;28;20022;-53
2022/12/29 05:02:54;;;;;;;4.43;3.72;;;10.60;99.90;;;;;;5035531;28;20105;-52
2022/12/29 05:05:41;;;;;;;3.13;2.58;;;10.60;99.90;;;;;;5034291;28;20490;-52
2022/12/29 05:08:26;;;;;;;3.97;2.67;;;10.60;99.90;;;;;;5034918;28;20486;-50
2022/12/29 05:11:12;;;;;;;3.05;2.70;;;10.40;99.90;;;;;;5034547;28;20028;-54
2022/12/29 05:13:58;;;;;;;3.10;2.80;;;10.50;99.90;;;;;;5034512;28;20038;-49
2022/12/29 05:16:44;;;;;;;5.82;2.80;;;10.40;99.90;;;;;;5034521;28;20033;-50
2022/12/29 05:19:31;;;;;;;4.10;2.97;;;10.40;99.90;;;;;;5034109;28;20030;-54
2022/12/29 05:22:17;;;;;;;4.78;2.70;;;10.40;99.90;;;;;;5033800;28;20033;-52
2022/12/29 05:25:03;;;;;;;3.75;2.60;;;10.30;99.90;;;;;;5034616;28;20022;-50
2022/12/29 05:27:49;;;;;;;3.50;2.75;;;10.30;99.90;;;;;;5035105;28;20052;-53
2022/12/29 05:30:35;;;;;;;4.38;3.13;;;10.40;99.90;;;;;;5033227;28;20562;-50
2022/12/29 05:33:21;;;;;;;4.47;3.42;;;10.30;99.90;;;;;;5034000;28;20029;-50
2022/12/29 05:36:08;;;;;;;5.65;3.20;;;10.30;99.90;;;;;;5033806;28;20017;-50
2022/12/29 05:38:54;;;;;;;3.83;3.00;;;10.30;99.90;;;;;;5029846;28;20049;-50
2022/12/29 05:41:40;;;;;;;5.57;3.03;;;10.30;99.90;;;;;;5034561;28;20104;-48
2022/12/29 05:44:26;;;;;;;3.60;3.10;;;10.30;99.90;;;;;;5034938;28;20077;-50
2022/12/29 05:47:12;;;;;;;4.05;2.92;;;10.30;99.90;;;;;;5033444;28;20412;-54
2022/12/29 05:49:58;;;;;;;3.85;2.90;;;10.30;99.90;;;;;;5034741;28;20494;-51
2022/12/29 05:52:44;;;;;;;3.45;2.90;;;10.30;99.90;;;;;;5018269;28;20029;-52
2022/12/29 05:55:30;;;;;;;7.10;3.55;;;10.30;99.90;;;;;;5033962;28;20598;-53
2022/12/29 05:58:16;;;;;;;5.47;2.92;;;10.30;99.90;;;;;;5034883;28;20720;-50
2022/12/29 06:01:03;;;;;;;4.65;3.53;;;10.30;99.90;;;;;;5034324;28;20021;-51
2022/12/29 06:03:48;;;;;;;3.63;2.65;;;10.40;99.90;;;;;;5034614;28;20104;-51
2022/12/29 06:06:35;;;;;;;4.07;3.45;;;10.30;99.90;;;;;;5034515;28;20108;-49
2022/12/29 06:09:21;;;;;;;4.85;2.90;;;10.40;99.90;;;;;;5031563;28;20045;-50
2022/12/29 06:12:07;;;;;;;5.35;3.08;;;10.50;99.90;;;;;;5033291;28;20036;-51
2022/12/29 06:14:52;;;;;;;4.35;2.60;;;10.50;99.90;;;;;;5033365;28;20068;-51
2022/12/29 06:17:39;;;;;;;4.32;3.17;;;10.50;99.90;;;;;;5033769;28;20033;-52
2022/12/29 06:20:25;;;;;;;3.85;2.90;;;10.60;99.90;;;;;;5034264;28;20029;-53
2022/12/29 06:23:14;;;;;;;3.65;2.92;;;10.70;99.90;;;;;;5034004;28;20041;-50
2022/12/29 06:26:00;;;;;;;5.32;2.78;;;10.80;99.90;;;;;;5032842;28;20061;-54
2022/12/29 06:28:46;;;;;;;3.08;2.60;;;10.80;99.90;;;;;;5034651;28;20153;-52
2022/12/29 06:31:32;;;;;;;3.97;2.85;;;10.80;99.90;;;;;;5034612;28;20041;-50
2022/12/29 06:34:18;;;;;;;7.28;3.17;;;10.90;99.90;;;;;;5036410;28;20030;-53
2022/12/29 06:37:04;;;;;;;3.85;3.08;;;10.90;99.90;;;;;;5045801;28;20026;-53
2022/12/29 06:39:50;;;;;;;3.80;2.58;;;10.90;99.90;;;;;;5043680;28;20025;-53
2022/12/29 06:42:36;;;;;;;4.97;2.95;;;11.00;99.90;;;;;;5042726;28;20506;-50
2022/12/29 06:45:21;;;;;;;3.63;2.70;;;11.00;99.90;;;;;;5033144;28;20409;-49
2022/12/29 06:48:08;;;;;;;4.35;2.75;;;11.00;99.90;;;;;;5033514;28;20501;-50
2022/12/29 06:50:54;;;;;;;3.53;2.80;;;11.10;99.90;;;;;;5033375;28;20406;-52
2022/12/29 06:53:40;;;;;;;3.15;2.45;;;11.00;99.90;;;;;;5033629;28;20022;-50
2022/12/29 06:56:26;;;;;;;3.67;2.67;;;11.10;99.90;;;;;;5033659;28;20049;-50
2022/12/29 06:59:12;;;;;;;3.55;2.83;;;11.10;99.90;;;;;;5033896;28;20108;-50
2022/12/29 07:01:58;;;;;;;5.45;3.08;;;11.10;99.90;;;;;;5036337;28;20053;-54
2022/12/29 07:04:43;;;;;;;4.88;2.67;;;11.10;99.90;;;;;;5040936;28;20662;-54
2022/12/29 07:07:29;;;;;;;4.05;3.00;;;11.10;99.90;;;;;;5038559;28;20076;-51
2022/12/29 07:10:15;;;;;;;3.92;2.85;;;11.10;99.90;;;;;;5032793;28;20029;-49
2022/12/29 07:13:01;;;;;;;4.60;2.72;;;11.20;99.90;;;;;;5032739;28;20065;-53
2022/12/29 07:15:47;;;;;;;4.35;2.60;;;11.10;99.90;;;;;;5034118;28;20041;-53
2022/12/29 07:18:33;;;;;;;3.90;3.10;;;11.10;99.90;;;;;;5031647;28;20033;-54
2022/12/29 07:21:19;;;;;;;3.38;2.85;;;11.10;99.90;;;;;;5033466;28;20060;-53
2022/12/29 07:24:05;;;;;;;8.63;3.45;;;11.10;99.90;;;;;;5029216;28;20026;-51
2022/12/29 07:26:52;;;;;;;5.93;3.13;;;11.10;99.90;;;;;;5022734;28;20032;-51
2022/12/29 07:29:38;;;;;;;4.50;3.10;;;11.10;99.90;;;;;;5037354;28;20037;-49
2022/12/29 07:32:24;;;;;;;3.17;2.75;;;11.10;99.90;;;;;;5037198;28;20026;-47
2022/12/29 07:35:10;;;;;;;5.30;3.05;;;11.00;99.90;;;;;;5037219;28;20036;-49
2022/12/29 07:37:55;;;;;;;4.97;3.00;;;11.00;99.90;;;;;;5033628;28;20398;-51
2022/12/29 07:40:42;;;;;;;4.63;3.30;;;11.00;99.90;;;;;;5022746;28;22165;-46
2022/12/29 07:43:28;;;;;;;5.07;2.70;;;11.00;99.90;;;;;;5032596;28;20033;-49
2022/12/29 07:46:14;;;;;;;5.07;3.70;;;11.00;99.90;;;;;;5031505;28;20117;-50
2022/12/29 07:49:00;;;;;;;8.20;3.40;;;10.90;99.90;;;;;;5035049;28;20524;-47
2022/12/29 07:51:46;;;;;;;6.50;3.88;;;10.90;99.90;;;;;;5035321;28;20034;-47
2022/12/29 07:54:32;;;;;;;4.25;2.80;;;10.90;99.90;;;;;;5035330;28;20105;-51
2022/12/29 07:57:18;;;;;;;4.47;3.08;;;11.00;99.90;;;;;;5032896;28;20060;-50
2022/12/29 08:00:04;;;;;;;4.43;2.70;;;11.00;99.90;;;;;;5036774;28;20080;-51
2022/12/29 08:02:50;;;;;;;4.68;2.67;;;11.00;99.90;;;;;;5034498;28;20418;-50
2022/12/29 08:05:36;;;;;;;3.40;2.50;;;11.10;99.90;;;;;;5034408;28;20025;-48
2022/12/29 08:08:22;;;;;;;3.78;2.70;;;11.20;99.90;;;;;;5015380;28;20112;-50
2022/12/29 08:11:08;;;;;;;3.65;2.25;;;11.20;99.90;;;;;;5016554;28;20030;-52
2022/12/29 08:13:54;;;;;;;4.90;2.78;;;11.20;99.90;;;;;;5016873;28;20438;-52
2022/12/29 08:16:39;;;;;;;3.08;2.50;;;11.20;99.90;;;;;;5015510;28;20034;-46
2022/12/29 08:19:25;;;;;;;3.05;2.25;;;11.30;99.90;;;;;;5015480;28;20030;-46
2022/12/29 08:22:13;;;;;;;2.90;2.60;;;11.30;99.90;;;;;;5031716;28;20025;-46
2022/12/29 08:24:59;;;;;;;4.03;2.33;;;11.40;99.90;;;;;;5036177;28;20108;-48
2022/12/29 08:27:45;;;;;;;4.20;2.58;;;11.50;99.90;;;;;;5036188;28;20104;-47
2022/12/29 08:30:31;;;;;;;4.47;2.60;;;11.60;99.90;;;;;;5035395;28;20569;-50
2022/12/29 08:33:17;;;;;;;4.05;2.53;;;11.70;99.90;;;;;;5035416;28;20029;-48
2022/12/29 08:36:06;;;;;;;3.58;2.45;;;11.70;99.90;;;;;;5034852;28;20108;-46
2022/12/29 08:38:52;;;;;;;3.17;2.30;;;11.70;99.90;;;;;;5034678;28;20068;-49
2022/12/29 08:41:38;;;;;;;2.30;2.10;;;11.80;99.90;;;;;;5035089;28;20025;-45
2022/12/29 08:44:24;;;;;;;3.30;2.40;;;11.80;99.90;;;;;;5035816;28;20075;-47
2022/12/29 08:47:11;;;;;;;4.13;2.72;;;11.80;99.90;;;;;;5033955;28;20132;-54
2022/12/29 08:49:57;;;;;;;3.63;2.50;;;12.00;99.90;;;;;;5033694;28;20029;-54
2022/12/29 08:52:43;;;;;;;3.42;2.70;;;11.90;99.90;;;;;;5036457;28;20036;-50
2022/12/29 08:55:28;;;;;;;6.03;2.75;;;11.90;99.90;;;;;;5036353;28;20030;-52
2022/12/29 08:58:16;;;;;;;2.92;2.33;;;12.00;99.90;;;;;;5034304;28;20034;-47
2022/12/29 09:01:02;;;;;;;3.25;2.60;;;12.10;99.90;;;;;;5029141;28;20501;-49
2022/12/29 09:03:48;;;;;;;5.10;2.33;;;12.20;99.90;;;;;;5033355;28;20051;-50
2022/12/29 09:06:34;;;;;;;3.70;2.38;;;12.30;99.90;;;;;;5035516;28;20025;-50
2022/12/29 09:09:20;;;;;;;3.67;2.70;;;12.30;99.90;;;;;;5034343;28;20548;-50
2022/12/29 09:12:06;;;;;;;3.22;2.40;;;12.30;99.90;;;;;;5035090;28;20025;-51
2022/12/29 09:14:52;;;;;;;3.88;2.63;;;12.30;99.90;;;;;;5034326;28;20028;-47
2022/12/29 09:17:44;;;;;;;5.28;2.75;;;12.40;99.90;;;;;;5035228;28;20030;-51
2022/12/29 09:20:30;;;;;;;3.80;2.30;;;12.50;99.90;;;;;;5034696;28;20029;-49
2022/12/29 09:23:16;;;;;;;2.60;2.10;;;12.50;99.90;;;;;;5030987;28;20052;-52
2022/12/29 09:26:02;;;;;;;3.05;2.35;;;12.60;99.90;;;;;;5027381;28;20029;-52
2022/12/29 09:28:48;;;;;;;2.30;2.10;;;12.60;99.90;;;;;;5023617;28;20026;-51
2022/12/29 09:31:34;;;;;;;3.95;2.20;;;12.50;99.90;;;;;;5023933;28;20115;-54
2022/12/29 09:34:20;;;;;;;3.80;2.50;;;12.50;99.90;;;;;;5024660;28;20502;-54
2022/12/29 09:37:06;;;;;;;4.35;2.53;;;12.60;99.90;;;;;;5025011;28;20509;-54
2022/12/29 09:39:52;;;;;;;2.38;2.17;;;12.60;99.90;;;;;;5029058;28;20050;-56
2022/12/29 09:42:44;;;;;;;3.38;2.40;;;12.60;99.90;;;;;;5026231;28;20058;-52
2022/12/29 09:45:45;;;;;;;3.15;2.47;;;12.70;99.90;;;;;;5021957;28;20502;-55
2022/12/29 09:48:37;;;;;;;2.75;2.38;;;12.70;99.90;;;;;;5022543;28;20041;-48
2022/12/29 09:51:25;;;;;;;3.50;2.50;;;12.80;99.90;;;;;;5025371;28;20040;-53
2022/12/29 09:54:23;;;;;;;3.35;2.35;;;12.80;99.90;;;;;;5022754;28;20084;-51
2022/12/29 09:57:27;;;;;;;4.47;2.45;;;12.80;99.90;;;;;;5032630;28;20505;-48
2022/12/29 10:00:17;;;;;;;3.03;2.60;;;12.70;99.90;;;;;;5014154;28;20025;-54
2022/12/29 10:03:30;;;;;;;3.40;2.20;;;12.80;99.90;;;;;;5032071;28;20033;-55
2022/12/29 10:06:27;;;;;;;4.82;2.38;;;12.80;99.90;;;;;;5027990;28;20018;-51
2022/12/29 10:09:37;;;;;;;7.35;2.92;;;12.90;99.90;;;;;;5025261;28;20028;-49
2022/12/29 10:12:48;;;;;;;4.22;2.53;;;12.90;99.90;;;;;;5050149;28;20029;-53
2022/12/29 10:15:48;;;;;;;2.90;2.60;;;13.00;99.90;;;;;;5023806;28;20079;-49
2022/12/29 10:18:43;;;;;;;2.80;2.13;;;13.10;99.90;;;;;;5022312;28;20018;-47
2022/12/29 10:22:10;;;;;;;4.07;2.20;;;13.20;99.90;;;;;;5023747;28;20048;-49
2022/12/29 10:24:56;;;;;;;;;;;13.20;99.90;;;;;;5025145;28;20017;-54
2022/12/29 10:27:46;;;;;;;3.00;2.10;;;13.30;99.90;;;;;;5034066;28;20266;-51
2022/12/29 10:30:34;;;;;;;4.30;2.20;;;13.20;99.90;;;;;;5032463;28;20033;-53
2022/12/29 10:33:26;;;;;;;6.25;2.42;;;13.30;99.90;;;;;;5032556;28;20156;-53
2022/12/29 10:36:25;;;;;;;2.75;2.10;;;13.30;99.90;;;;;;5031678;28;20548;-56
2022/12/29 10:39:26;;;;;;;3.47;2.30;;;13.20;99.90;;;;;;5031313;28;20084;-51
2022/12/29 10:42:24;;;;;;;4.03;2.60;;;13.30;99.90;;;;;;5032678;28;20517;-54
2022/12/29 10:45:15;;;;;;;3.17;2.22;;;13.30;99.90;;;;;;5039993;28;20026;-47
2022/12/29 10:48:14;;;;;;;4.18;2.65;;;13.30;99.90;;;;;;5041672;28;20095;-55
2022/12/29 10:51:03;;;;;;;3.30;2.35;;;13.30;99.90;;;;;;5042621;28;20032;-52
2022/12/29 10:53:55;;;;;;;6.22;2.45;;;13.30;99.90;;;;;;5039543;28;20021;-54
2022/12/29 10:56:53;;;;;;;7.80;2.35;;;13.20;99.90;;;;;;5033412;28;20390;-54
2022/12/29 10:59:39;;;;;;;4.30;2.53;;;13.30;99.90;;;;;;5032515;28;20090;-53
2022/12/29 11:02:55;;;;;;;4.25;2.60;;;13.20;99.90;;;;;;5032691;28;20755;-50
2022/12/29 11:06:06;;;;;;;3.72;2.40;;;13.20;99.90;;;;;;5033194;28;20029;-53
2022/12/29 11:09:08;;;;;;;2.45;2.25;;;13.20;99.90;;;;;;5032248;28;20030;-49
2022/12/29 11:11:54;;;;;;;3.95;2.45;;;13.30;99.90;;;;;;5030431;28;20032;-55
2022/12/29 11:14:41;;;;;;;3.58;2.35;;;13.30;99.90;;;;;;5032225;28;20036;-53
2022/12/29 11:17:27;;;;;;;3.95;2.45;;;13.40;99.90;;;;;;5030417;28;20033;-55
2022/12/29 11:20:34;;;;;;;4.00;2.38;;;13.50;99.90;;;;;;5029069;28;20553;-53
2022/12/29 11:23:41;;;;;;;6.47;2.60;;;13.50;99.90;;;;;;5028949;28;20472;-50
2022/12/29 11:26:28;;;;;;;5.35;2.63;;;13.50;99.90;;;;;;5033293;28;20037;-54
2022/12/29 11:29:14;;;;;;;2.63;2.40;;;13.40;99.90;;;;;;5030690;28;20037;-56
2022/12/29 11:32:18;;;;;;;3.97;2.53;;;13.40;99.90;;;;;;5032533;28;20025;-54
2022/12/29 11:35:04;;;;;;;4.20;2.50;;;13.40;99.90;;;;;;5028928;28;20017;-58
2022/12/29 11:37:57;;;;;;;3.53;2.58;;;13.30;99.90;;;;;;5012909;28;20441;-53
2022/12/29 11:40:43;;;;;;;4.20;3.00;;;13.30;99.90;;;;;;5025142;28;20024;-52
2022/12/29 11:43:33;;;;;;;3.65;2.88;;;13.30;99.90;;;;;;5024192;28;20072;-54
2022/12/29 11:46:26;;;;;;;3.13;2.22;;;13.30;99.90;;;;;;5024098;28;20045;-55
2022/12/29 11:49:21;;;;;;;3.35;2.40;;;13.30;99.90;;;;;;5026223;28;20421;-53
2022/12/29 11:52:08;;;;;;;4.88;2.63;;;13.40;99.90;;;;;;5027005;28;20050;-52
2022/12/29 11:54:55;;;;;;;4.28;2.45;;;13.40;99.90;;;;;;5020345;28;20038;-59
2022/12/29 11:57:42;;;;;;;3.53;2.30;;;13.40;99.90;;;;;;5031530;28;20040;-52
2022/12/29 12:00:31;;;;;;;4.00;3.20;;;13.50;99.90;;;;;;5029712;28;20076;-54
2022/12/29 12:03:22;;;;;;;3.55;2.65;;;13.60;99.90;;;;;;5030090;28;20090;-51
2022/12/29 12:06:15;;;;;;;3.35;2.45;;;13.50;99.90;;;;;;5031613;28;20017;-57
2022/12/29 12:09:14;;;;;;;2.22;2.03;;;13.50;99.90;;;;;;5027532;28;20140;-54
2022/12/29 12:12:01;;;;;;;3.92;2.30;;;13.40;99.90;;;;;;5032175;28;20513;-49
2022/12/29 12:14:59;;;;;;;6.88;2.45;;;13.30;99.90;;;;;;5023159;28;20029;-58
2022/12/29 12:17:54;;;;;;;3.30;2.95;;;13.40;99.90;;;;;;5023012;28;20029;-56
2022/12/29 12:20:57;;;;;;;3.35;2.50;;;13.40;99.90;;;;;;5030303;28;20056;-57
2022/12/29 12:24:15;;;;;;;2.97;2.17;;;13.50;99.90;;;;;;5023251;28;20621;-58
2022/12/29 12:27:20;;;;;;;5.82;2.60;;;13.40;99.90;;;;;;5030584;28;20112;-62
2022/12/29 12:30:13;;;;;;;4.53;2.50;;;13.30;99.90;;;;;;5027215;28;20025;-61
2022/12/29 12:33:02;;;;;;;2.42;2.15;;;13.30;99.90;;;;;;5027662;28;20385;-58
2022/12/29 12:35:54;;;;;;;3.95;2.38;;;13.30;99.90;;;;;;5026773;28;20030;-58
2022/12/29 12:38:55;;;;;;;5.45;2.90;;;13.20;99.90;;;;;;5028787;28;20034;-58
2022/12/29 12:41:50;;;;;;;3.30;2.47;;;13.30;99.90;;;;;;5036114;28;20056;-58
2022/12/29 12:44:58;;;;;;;3.65;2.58;;;13.30;99.90;;;;;;5035774;28;20025;-57
2022/12/29 12:48:02;;;;;;;3.40;2.30;;;13.30;99.90;;;;;;5034672;28;20448;-53
2022/12/29 12:50:52;;;;;;;5.80;2.75;;;13.30;99.90;;;;;;5035473;28;20033;-59
2022/12/29 12:54:23;;;;;;;3.10;2.65;;;13.20;99.90;;;;;;5034572;28;20026;-59
2022/12/29 12:57:12;;;;;;;10.00;2.70;;;13.30;99.90;;;;;;5036107;28;20037;-59
2022/12/29 13:00:08;;;;;;;3.22;2.88;;;13.30;99.90;;;;;;5031046;28;20013;-60
2022/12/29 13:02:57;;;;;;;3.28;2.70;;;13.30;99.90;;;;;;5035766;28;20253;-59
2022/12/29 13:06:01;;;;;;;3.58;2.83;;;13.30;99.90;;;;;;5035590;28;20397;-58
2022/12/29 13:08:50;;;;;;;4.50;2.50;;;13.20;99.90;;;;;;5034456;28;20084;-59
2022/12/29 13:11:55;;;;;;;5.97;2.60;;;13.20;99.90;;;;;;5033332;28;20479;-57
2022/12/29 13:14:44;;;;;;;3.90;2.45;;;13.20;99.90;;;;;;5035930;28;20079;-60
2022/12/29 13:17:58;;;;;;;3.35;2.45;;;13.20;99.90;;;;;;5034945;28;20068;-63
2022/12/29 13:21:21;;;;;;;6.25;2.72;;;13.30;99.90;;;;;;5017438;28;20026;-59
2022/12/29 13:24:24;;;;;;;4.05;2.50;;;13.20;99.90;;;;;;5039128;28;20033;-59
2022/12/29 13:27:29;;;;;;;3.45;2.40;;;13.20;99.90;;;;;;5035232;28;20041;-61
2022/12/29 13:30:20;;;;;;;3.78;2.60;;;13.20;99.90;;;;;;5023930;28;20112;-56
2022/12/29 13:33:18;;;;;;;3.28;2.40;;;13.10;99.90;;;;;;5035133;28;20129;-57
2022/12/29 13:36:22;;;;;;;3.55;2.70;;;13.00;99.90;;;;;;5029433;28;20517;-59
2022/12/29 13:39:18;;;;;;;2.85;2.30;;;13.00;99.90;;;;;;5028553;28;20038;-57
2022/12/29 13:42:05;;;;;;;2.90;2.60;;;13.10;99.90;;;;;;5026210;28;20018;-60
2022/12/29 13:45:06;;;;;;;7.38;3.25;;;13.10;99.90;;;;;;5024464;28;20164;-58
2022/12/29 13:48:05;;;;;;;4.40;2.55;;;13.20;99.90;;;;;;5026533;28;20406;-58
2022/12/29 13:50:56;;;;;;;8.05;2.85;;;13.20;99.90;;;;;;5024800;28;20039;-56
2022/12/29 13:53:56;;;;;;;4.13;2.50;;;13.20;99.90;;;;;;5022943;28;20108;-55
2022/12/29 13:57:07;;;;;;;4.68;3.22;;;13.10;99.90;;;;;;5023181;28;20026;-57
2022/12/29 13:59:56;;;;;;;3.97;2.70;;;13.10;99.90;;;;;;5024015;28;20379;-57
2022/12/29 14:02:45;;;;;;;3.08;2.53;;;13.10;99.90;;;;;;5026430;28;20041;-59
2022/12/29 14:05:32;;;;;;;5.63;2.70;;;13.00;99.90;;;;;;5032550;28;20457;-58
2022/12/29 14:08:18;;;;;;;4.78;3.03;;;13.00;99.90;;;;;;5033015;28;20022;-59
2022/12/29 14:11:13;;;;;;;3.53;2.70;;;13.10;99.90;;;;;;5025584;28;20076;-57
2022/12/29 14:14:09;;;;;;;3.20;2.40;;;13.10;99.90;;;;;;5025251;28;20035;-56
2022/12/29 14:17:10;;;;;;;6.15;2.92;;;13.20;99.90;;;;;;5029751;28;20040;-58
2022/12/29 14:19:56;;;;;;;3.42;2.90;;;13.30;99.90;;;;;;5031677;28;20490;-53
2022/12/29 14:22:58;;;;;;;3.97;2.80;;;13.20;99.90;;;;;;5027824;28;20445;-56
2022/12/29 14:28:34;;;;;;;3.53;2.50;;;13.00;99.90;;;;;;5152417;22;20163;-56
2022/12/29 14:31:29;;;;;;;6.82;2.42;;;12.90;99.90;;;;;;5043742;28;20124;-54
2022/12/29 14:34:19;;;;;;;3.38;2.63;;;12.80;99.90;;;;;;5045356;28;20017;-51
2022/12/29 14:37:35;;;;;;;3.40;2.70;;;12.70;99.90;;;;;;5050606;28;20033;-52
2022/12/29 14:40:26;;;;;;;3.97;2.30;;;12.70;99.90;;;;;;5051913;28;20036;-52
2022/12/29 14:43:25;;;;;;;4.32;2.40;;;12.60;99.90;;;;;;5051216;28;20056;-53
2022/12/29 14:46:11;;;;;;;3.67;2.80;;;12.60;99.90;;;;;;5051796;28;20407;-50
2022/12/29 14:48:58;;;;;;;3.75;2.22;;;12.60;99.90;;;;;;5051816;28;20412;-52
2022/12/29 14:51:46;;;;;;;3.40;2.28;;;12.50;99.90;;;;;;5052036;28;20095;-51
2022/12/29 14:54:38;;;;;;;3.78;2.20;;;12.50;99.90;;;;;;5052442;28;20029;-50
2022/12/29 14:57:42;;;;;;;3.45;2.20;;;12.50;99.90;;;;;;5051568;28;20103;-52
2022/12/29 15:00:34;;;;;;;4.78;2.55;;;12.50;99.90;;;;;;5052032;28;20028;-51
2022/12/29 15:03:29;;;;;;;2.72;2.15;;;12.40;99.90;;;;;;5052148;28;20021;-52
2022/12/29 15:06:18;;;;;;;;;;;12.40;99.90;;;;;;5052744;28;20108;-53
2022/12/29 15:09:25;;;;;;;4.97;2.30;;;12.40;99.90;;;;;;5050875;28;19909;-51
2022/12/29 15:12:38;;;;;;;3.33;2.70;;;12.30;99.90;;;;;;5050724;28;20021;-55
2022/12/29 15:15:29;;;;;;;2.50;2.20;;;12.30;99.90;;;;;;5051327;28;20021;-45
2022/12/29 15:18:33;;;;;;;3.22;2.40;;;12.20;99.90;;;;;;5051765;28;20078;-53
2022/12/29 15:21:24;;;;;;;7.32;2.20;;;12.20;99.90;;;;;;5050828;28;20029;-46
2022/12/29 15:24:11;;;;;;;3.72;2.30;;;12.20;99.90;;;;;;5052293;28;20059;-45
2022/12/29 15:26:56;;;;;;;4.03;2.20;;;12.20;99.90;;;;;;5050851;28;20028;-48
2022/12/29 15:29:45;;;;;;;2.20;2.00;;;12.10;99.90;;;;;;5053840;28;20045;-45
2022/12/29 15:32:42;;;;;;;5.45;2.53;;;12.10;99.90;;;;;;5051139;28;20017;-46
2022/12/29 15:35:32;;;;;;;2.50;2.00;;;12.10;99.90;;;;;;5052079;28;20031;-46
2022/12/29 15:38:36;;;;;;;2.53;2.20;;;12.00;99.90;;;;;;5051789;28;20029;-52